SBSV/SSA METAR and TAF weather

Enter ICAO airport designator
Station Type Date Time Source
SBSV METAR 2024/06/14 02:00 UTC NOAA

SBSV 140200Z 11013KT 9999 SCT030 BKN050 27/20 Q1018


Station Type Date Time Source
SBSV Decoded METAR 2024/06/14 02:00 UTC NOAA

Salvador Aeroporto , Brazil (SBSV) 12-54S 038-20W 13M
Jun 13, 2024 - 10:00 PM EDT / 2024.06.14 0200 UTC
Wind: from the ESE (110 degrees) at 15 MPH (13 KT):0
Visibility: greater than 7 mile(s):0
Sky conditions: mostly cloudy
Temperature: 80 F (27 C)
Dew Point: 68 F (20 C)
Relative Humidity: 65%
Pressure (altimeter): 30.06 in. Hg (1018 hPa)
ob: SBSV 140200Z 11013KT 9999 SCT030 BKN050 27/20 Q1018
cycle: 2

Station Type Date Time Source
SBSV TAF 2024/06/14 00:00 UTC NOAA